Aviation Digital Data Service (ADDS)

Output produced by METARs form (0419 UTC 05 August 2015)
found at http://aviationweather.gov/adds/metars/
 
KMIV 050001Z 0500/0524 VRB03KT P6SM -SHRA SCT040 OVC070 
     TEMPO 0501/0505 3SM TSRA BR OVC025CB 
     FM050600 VRB03KT 3SM BR SCT015 
     FM051300 30006KT P6SM SCT035 
     FM051600 29008G16KT P6SM SCT050 
     FM052300 29004KT P6SM SCT250